Time;durP1;ratioP1;P1;durP2;ratioP2;P2;SDS_P1;SDS_P2;PMS_P1;PMS_P2;Temp;Humidity;BMP_temperature;BMP_pressure;BME280_temperature;BME280_humidity;BME280_pressure;Samples;Min_cycle;Max_cycle;Signal;HPM_P1;HPM_P2
2023/09/20 00:01:59;;;;;;;7.68;3.50;;;;;;;18.52;100.00;98831.00;5138569;27;20031;-93
2023/09/20 00:04:24;;;;;;;9.95;3.15;;;;;;;18.58;100.00;98829.75;5136553;27;20035;-93
2023/09/20 00:06:52;;;;;;;6.72;2.92;;;;;;;18.81;100.00;98849.97;5140343;27;20043;-94
2023/09/20 00:09:18;;;;;;;12.60;3.35;;;;;;;18.71;100.00;98825.38;5139940;27;20031;-93
2023/09/20 00:11:45;;;;;;;6.00;3.13;;;;;;;18.76;100.00;98839.44;5137756;27;20041;-93
2023/09/20 00:14:11;;;;;;;7.10;3.00;;;;;;;18.52;100.00;98822.03;5137181;27;20043;-94
2023/09/20 00:16:39;;;;;;;6.35;2.70;;;;;;;18.91;100.00;98872.72;5136469;27;20035;-94
2023/09/20 00:19:05;;;;;;;7.53;2.78;;;;;;;18.89;99.47;98877.34;5135252;27;20035;-93
2023/09/20 00:21:31;;;;;;;7.03;2.92;;;;;;;18.72;99.62;98853.19;5137273;27;20043;-92
2023/09/20 00:23:56;;;;;;;5.63;1.85;;;;;;;18.84;98.66;98856.03;5129659;27;20435;-91
2023/09/20 00:26:22;;;;;;;4.68;2.85;;;;;;;18.93;97.63;98851.94;5140786;27;20484;-93
2023/09/20 00:28:49;;;;;;;5.82;2.83;;;;;;;18.59;99.54;98823.44;5141514;27;20076;-92
2023/09/20 00:31:16;;;;;;;4.47;2.97;;;;;;;18.71;100.00;98852.31;5129827;27;20074;-93
2023/09/20 00:33:44;;;;;;;6.18;3.10;;;;;;;18.51;100.00;98849.94;5138007;27;20066;-92
2023/09/20 00:36:17;;;;;;;6.25;2.42;;;;;;;18.52;99.35;98833.69;5127244;27;20051;-92
2023/09/20 00:38:45;;;;;;;4.80;2.80;;;;;;;18.56;99.95;98843.28;5124674;27;20047;-93
2023/09/20 00:41:11;;;;;;;6.80;2.47;;;;;;;18.37;100.00;98819.28;5125471;27;20040;-94
2023/09/20 00:43:37;;;;;;;5.75;2.58;;;;;;;18.60;100.00;98846.69;5121300;27;20040;-92
2023/09/20 00:46:04;;;;;;;8.05;3.13;;;;;;;18.65;99.57;98847.28;5119846;27;20092;-93
2023/09/20 00:48:31;;;;;;;8.25;3.28;;;;;;;18.39;99.68;98814.69;5118956;27;20058;-92
2023/09/20 00:50:58;;;;;;;6.78;3.03;;;;;;;18.46;100.00;98855.59;5122883;27;20040;-92
2023/09/20 00:53:25;;;;;;;8.80;3.08;;;;;;;18.19;100.00;98834.66;5129530;27;20032;-93
2023/09/20 00:55:51;;;;;;;8.50;2.92;;;;;;;18.56;100.00;98870.22;5123024;27;20097;-93
2023/09/20 00:58:19;;;;;;;8.45;3.03;;;;;;;18.38;100.00;98836.31;5120415;27;20028;-92
2023/09/20 01:00:46;;;;;;;5.75;2.55;;;;;;;18.39;100.00;98817.38;5124608;27;20099;-93
2023/09/20 01:03:17;;;;;;;7.25;2.70;;;;;;;18.64;100.00;98835.63;5126936;27;20493;-93
2023/09/20 01:05:47;;;;;;;8.13;2.47;;;;;;;18.60;100.00;98815.22;5121280;27;20043;-92
2023/09/20 01:08:17;;;;;;;5.65;2.53;;;;;;;18.91;99.48;98856.56;5126276;27;20035;-93
2023/09/20 01:10:45;;;;;;;4.50;2.88;;;;;;;19.00;99.76;98845.22;5121550;27;20043;-91
2023/09/20 01:13:13;;;;;;;5.40;2.97;;;;;;;18.74;100.00;98803.66;5126575;27;20493;-90
2023/09/20 01:15:39;;;;;;;4.05;2.95;;;;;;;19.00;98.93;98820.13;5121580;27;20065;-93
2023/09/20 01:18:07;;;;;;;6.15;2.17;;;;;;;19.01;97.30;98821.84;5125494;27;20434;-92
2023/09/20 01:20:38;;;;;;;3.75;2.45;;;;;;;19.24;98.28;98861.72;5120037;27;20035;-94
2023/09/20 01:23:06;;;;;;;5.10;2.15;;;;;;;19.29;98.40;98850.66;5122377;27;20100;-92
2023/09/20 01:25:35;;;;;;;4.63;2.80;;;;;;;19.37;98.76;98844.81;5124396;27;20089;-92
2023/09/20 01:28:03;;;;;;;5.53;3.17;;;;;;;19.28;98.11;98811.19;5123924;27;20022;-93
2023/09/20 01:30:33;;;;;;;6.63;2.65;;;;;;;19.36;98.77;98816.09;5122743;27;20038;-93
2023/09/20 01:33:00;;;;;;;4.47;3.00;;;;;;;19.35;99.31;98814.38;5114722;27;20085;-93
2023/09/20 01:35:28;;;;;;;4.90;2.40;;;;;;;19.30;99.38;98811.97;5118921;27;20382;-93
2023/09/20 01:37:55;;;;;;;5.80;3.00;;;;;;;19.50;100.00;98841.25;5118174;27;20038;-93
2023/09/20 01:40:25;;;;;;;4.18;2.00;;;;;;;19.49;100.00;98844.88;5123866;27;20446;-93
2023/09/20 01:42:52;;;;;;;5.28;3.00;;;;;;;19.33;100.00;98813.59;5125145;27;20515;-92
2023/09/20 01:45:19;;;;;;;4.82;2.83;;;;;;;19.44;100.00;98828.13;5118844;27;20035;-92
2023/09/20 01:47:47;;;;;;;7.97;2.88;;;;;;;19.18;100.00;98786.63;5123581;27;20066;-96
2023/09/20 01:50:13;;;;;;;6.07;2.65;;;;;;;19.33;98.58;98836.03;5121749;27;20134;-96
2023/09/20 01:52:39;;;;;;;3.78;2.60;;;;;;;19.47;98.00;98818.97;5118118;27;20067;-94
2023/09/20 01:55:09;;;;;;;5.45;2.58;;;;;;;19.44;96.18;98787.69;5122659;27;20456;-93
2023/09/20 01:57:36;;;;;;;5.60;3.08;;;;;;;19.61;92.99;98805.50;5121304;27;20125;-93
2023/09/20 02:00:16;;;;;;;4.55;2.72;;;;;;;19.73;91.60;98828.16;5116048;27;20043;-92
2023/09/20 02:02:44;;;;;;;4.85;2.78;;;;;;;19.68;93.05;98805.97;5116415;27;20131;-93
2023/09/20 02:05:10;;;;;;;4.30;2.70;;;;;;;19.63;94.93;98814.38;5120254;27;20035;-92
2023/09/20 02:07:35;;;;;;;4.22;2.70;;;;;;;19.54;95.54;98811.38;5123421;27;20035;-96
2023/09/20 02:10:03;;;;;;;5.70;2.90;;;;;;;19.59;95.99;98811.97;5126828;27;20047;-93
2023/09/20 02:12:29;;;;;;;5.72;2.65;;;;;;;19.44;95.87;98793.06;5119126;27;20036;-94
2023/09/20 02:14:56;;;;;;;4.07;2.55;;;;;;;19.60;97.16;98833.44;5120195;27;20512;-94
2023/09/20 02:17:22;;;;;;;7.85;2.63;;;;;;;19.48;98.22;98821.59;5121270;27;20020;-94
2023/09/20 02:19:50;;;;;;;9.27;2.92;;;;;;;19.68;98.27;98831.13;5118484;27;20038;-94
2023/09/20 02:22:16;;;;;;;10.15;4.00;;;;;;;19.53;96.51;98796.16;5118596;27;20105;-90
2023/09/20 02:24:42;;;;;;;5.55;2.47;;;;;;;19.86;96.13;98837.22;5115293;27;20070;-94
2023/09/20 02:27:08;;;;;;;4.82;3.03;;;;;;;19.55;95.59;98799.63;5116317;27;20027;-93
2023/09/20 02:29:34;;;;;;;4.97;2.67;;;;;;;19.76;96.66;98836.06;5120058;27;20109;-95
2023/09/20 02:32:01;;;;;;;6.72;3.55;;;;;;;19.77;96.50;98829.69;5120913;27;20523;-95
2023/09/20 02:34:27;;;;;;;5.30;2.97;;;;;;;19.75;96.66;98822.66;5122269;27;20040;-92
2023/09/20 02:36:56;;;;;;;6.10;3.28;;;;;;;19.59;98.12;98834.41;5119753;27;20134;-93
2023/09/20 02:39:22;;;;;;;;;;;;;;;19.59;99.58;98839.78;5120440;27;20035;-93
2023/09/20 02:41:48;;;;;;;5.63;2.65;;;;;;;19.38;98.81;98779.97;5133764;27;19927;-94
2023/09/20 02:44:14;;;;;;;4.30;2.45;;;;;;;19.74;97.65;98816.41;5121170;27;20118;-90
2023/09/20 02:46:40;;;;;;;5.35;2.50;;;;;;;19.49;98.88;98787.38;5120897;27;20453;-92
2023/09/20 02:49:07;;;;;;;6.05;2.83;;;;;;;19.60;99.06;98809.16;5119200;27;20040;-92
2023/09/20 02:51:35;;;;;;;5.10;2.60;;;;;;;19.56;98.96;98802.25;5124942;27;20050;-91
2023/09/20 02:54:01;;;;;;;4.53;2.78;;;;;;;19.46;100.00;98782.19;5120316;27;20089;-94
2023/09/20 02:56:27;;;;;;;5.95;3.40;;;;;;;19.54;100.00;98795.19;5119839;27;20048;-92
2023/09/20 02:58:53;;;;;;;7.03;3.35;;;;;;;19.40;100.00;98783.44;5119813;27;20038;-92
2023/09/20 03:01:20;;;;;;;5.25;2.83;;;;;;;19.48;100.00;98805.41;5117324;27;20051;-93
2023/09/20 03:03:47;;;;;;;4.82;2.95;;;;;;;19.57;100.00;98803.09;5120022;27;20047;-92
2023/09/20 03:06:14;;;;;;;4.65;3.00;;;;;;;19.45;100.00;98789.44;5116447;27;20042;-94
2023/09/20 03:08:44;;;;;;;7.88;3.40;;;;;;;19.39;100.00;98786.25;5121536;27;20092;-94
2023/09/20 03:11:10;;;;;;;3.50;2.88;;;;;;;19.37;100.00;98774.69;5119004;27;20059;-94
2023/09/20 03:13:36;;;;;;;7.72;3.35;;;;;;;19.32;98.81;98760.63;5126267;27;20535;-92
2023/09/20 03:16:02;;;;;;;6.45;2.97;;;;;;;19.28;100.00;98781.53;5119816;28;20059;-92
2023/09/20 03:18:28;;;;;;;5.55;2.85;;;;;;;19.16;100.00;98766.13;5119885;28;20070;-93
2023/09/20 03:20:54;;;;;;;6.35;2.78;;;;;;;19.22;100.00;98774.69;5122727;27;20058;-94
2023/09/20 03:23:22;;;;;;;8.88;2.83;;;;;;;19.37;100.00;98785.50;5118555;28;20548;-92
2023/09/20 03:25:48;;;;;;;7.00;3.60;;;;;;;19.21;100.00;98767.53;5117266;28;20044;-93
2023/09/20 03:28:14;;;;;;;7.40;3.05;;;;;;;19.24;100.00;98766.50;5120482;28;20023;-94
2023/09/20 03:30:40;;;;;;;5.47;2.70;;;;;;;19.01;100.00;98741.84;5123968;28;20043;-92
2023/09/20 03:33:07;;;;;;;7.25;2.78;;;;;;;19.15;100.00;98764.38;5124405;28;20057;-94
2023/09/20 03:35:33;;;;;;;5.65;2.70;;;;;;;19.28;100.00;98798.56;5120243;28;20048;-93
2023/09/20 03:38:00;;;;;;;5.75;2.05;;;;;;;18.99;100.00;98759.06;5122181;28;20378;-92
2023/09/20 03:40:28;;;;;;;3.58;2.70;;;;;;;19.22;100.00;98793.56;5123858;28;20057;-94
2023/09/20 03:42:54;;;;;;;7.07;2.65;;;;;;;19.15;100.00;98780.53;5122458;28;20054;-95
2023/09/20 03:45:20;;;;;;;4.95;2.95;;;;;;;19.24;100.00;98791.63;5118031;28;20039;-92
2023/09/20 03:47:49;;;;;;;5.88;3.10;;;;;;;19.14;100.00;98781.53;5116926;28;20059;-92
2023/09/20 03:50:18;;;;;;;4.18;3.10;;;;;;;19.20;100.00;98782.00;5119458;28;20488;-94
2023/09/20 03:52:44;;;;;;;9.27;3.08;;;;;;;19.36;100.00;98814.25;5121985;28;20130;-93
2023/09/20 03:55:10;;;;;;;4.97;2.70;;;;;;;19.29;100.00;98803.00;5119052;28;20134;-93
2023/09/20 03:57:38;;;;;;;5.38;2.80;;;;;;;19.09;100.00;98757.56;5117367;28;20028;-93
2023/09/20 04:00:07;;;;;;;5.78;3.15;;;;;;;19.42;100.00;98816.56;5121082;28;20130;-94
2023/09/20 04:02:34;;;;;;;6.45;3.47;;;;;;;19.46;100.00;98818.13;5120600;28;20564;-90
2023/09/20 04:05:05;;;;;;;5.18;2.63;;;;;;;19.40;100.00;98796.94;5120596;28;20040;-92
2023/09/20 04:07:32;;;;;;;6.40;3.03;;;;;;;19.20;100.00;98760.44;5122086;28;20035;-93
2023/09/20 04:09:57;;;;;;;6.10;3.17;;;;;;;19.26;100.00;98789.72;5123514;27;20045;-92
2023/09/20 04:12:24;;;;;;;10.38;2.35;;;;;;;19.24;100.00;98783.56;5124448;27;20459;-93
2023/09/20 04:14:51;;;;;;;9.35;2.90;;;;;;;19.22;100.00;98781.91;5132402;27;20031;-93
2023/09/20 04:17:17;;;;;;;3.88;3.20;;;;;;;19.11;100.00;98762.84;5120518;27;20035;-93
2023/09/20 04:19:43;;;;;;;6.50;2.60;;;;;;;19.25;100.00;98785.25;5123998;27;20039;-91
2023/09/20 04:22:10;;;;;;;6.78;2.65;;;;;;;18.93;100.00;98730.66;5122226;27;20035;-94
2023/09/20 04:24:36;;;;;;;6.38;2.75;;;;;;;19.12;100.00;98773.53;5119904;27;20039;-93
2023/09/20 04:27:03;;;;;;;6.05;2.55;;;;;;;19.03;100.00;98757.94;5126657;27;20040;-96
2023/09/20 04:29:29;;;;;;;8.98;3.00;;;;;;;19.13;100.00;98771.69;5121802;27;20134;-92
2023/09/20 04:31:56;;;;;;;5.43;3.15;;;;;;;18.98;100.00;98746.56;5118669;27;20134;-94
2023/09/20 04:34:22;;;;;;;4.72;2.85;;;;;;;19.15;100.00;98778.75;5115725;28;20085;-95
2023/09/20 04:36:48;;;;;;;5.28;3.03;;;;;;;19.14;100.00;98792.31;5118893;27;20485;-91
2023/09/20 04:39:14;;;;;;;4.28;2.78;;;;;;;19.04;100.00;98790.19;5179309;22;20071;-93
2023/09/20 04:41:40;;;;;;;5.65;3.08;;;;;;;19.01;100.00;98779.56;5056058;28;20049;-93
2023/09/20 04:44:07;;;;;;;5.35;2.70;;;;;;;19.11;100.00;98812.22;5073036;28;20104;-93
2023/09/20 04:46:34;;;;;;;7.60;2.80;;;;;;;19.12;100.00;98807.69;5054659;28;20060;-93
2023/09/20 04:49:02;;;;;;;7.20;2.90;;;;;;;19.09;100.00;98801.53;5056787;28;20044;-94
2023/09/20 04:51:28;;;;;;;16.35;9.55;;;;;;;19.15;100.00;98811.09;5056550;28;20046;-93
2023/09/20 04:53:55;;;;;;;25.08;14.07;;;;;;;19.16;100.00;98801.16;5053499;28;20043;-94
2023/09/20 04:56:21;;;;;;;14.65;6.88;;;;;;;19.21;100.00;98812.50;5060753;28;20075;-94
2023/09/20 04:58:47;;;;;;;9.02;4.03;;;;;;;19.23;100.00;98806.06;5055795;28;20106;-91
2023/09/20 05:01:13;;;;;;;7.00;3.40;;;;;;;19.12;100.00;98792.38;5059975;28;20041;-93
2023/09/20 05:03:39;;;;;;;6.05;3.45;;;;;;;18.78;100.00;98761.25;5056415;28;20029;-94
2023/09/20 05:06:07;;;;;;;6.40;3.15;;;;;;;18.79;100.00;98752.22;5056898;28;20052;-92
2023/09/20 05:08:33;;;;;;;7.85;3.05;;;;;;;18.76;100.00;98747.84;5058345;28;20441;-93
2023/09/20 05:10:59;;;;;;;8.65;3.75;;;;;;;18.86;100.00;98769.72;5060532;28;20052;-92
2023/09/20 05:13:25;;;;;;;9.30;3.50;;;;;;;18.70;100.00;98742.84;5057189;28;20043;-93
2023/09/20 05:16:05;;;;;;;9.82;3.88;;;;;;;19.05;100.00;98797.28;5056894;28;20021;-93
2023/09/20 05:18:31;;;;;;;7.22;4.68;;;;;;;19.02;100.00;98789.41;5055038;28;20049;-92
2023/09/20 05:20:58;;;;;;;8.75;4.80;;;;;;;18.89;100.00;98758.78;5054753;28;20139;-93
2023/09/20 05:23:25;;;;;;;8.07;5.45;;;;;;;18.96;100.00;98761.97;5056261;28;20033;-92
2023/09/20 05:25:51;;;;;;;6.95;4.88;;;;;;;18.96;100.00;98762.84;5054580;28;20037;-92
2023/09/20 05:28:17;;;;;;;11.20;4.72;;;;;;;19.11;100.00;98785.28;5058055;28;20096;-93
2023/09/20 05:30:44;;;;;;;9.68;3.97;;;;;;;19.28;100.00;98803.97;5057958;28;20075;-93
2023/09/20 05:33:11;;;;;;;10.48;4.00;;;;;;;19.16;100.00;98782.28;5056279;28;20037;-94
2023/09/20 05:35:39;;;;;;;6.65;3.45;;;;;;;19.36;100.00;98797.22;5053966;28;20037;-93
2023/09/20 05:38:05;;;;;;;5.28;2.72;;;;;;;19.48;100.00;98818.03;5056946;28;20108;-94
2023/09/20 05:40:33;;;;;;;8.68;4.38;;;;;;;19.21;100.00;98775.63;5054067;28;20072;-94
2023/09/20 05:42:59;;;;;;;7.50;3.97;;;;;;;19.56;100.00;98836.41;5071485;28;20068;-94
2023/09/20 05:45:26;;;;;;;5.53;3.40;;;;;;;19.54;100.00;98839.22;5058238;28;20115;-95
2023/09/20 05:47:52;;;;;;;7.60;3.22;;;;;;;19.45;100.00;98827.19;5056459;28;20059;-94
2023/09/20 05:50:22;;;;;;;9.95;3.25;;;;;;;19.46;100.00;98826.22;5057335;28;20037;-92
2023/09/20 05:52:51;;;;;;;7.80;3.38;;;;;;;19.17;100.00;98782.22;5058199;28;20092;-93
2023/09/20 05:55:18;;;;;;;9.45;4.00;;;;;;;19.43;100.00;98829.13;5059469;28;20037;-93
2023/09/20 05:57:46;;;;;;;5.60;3.35;;;;;;;19.49;100.00;98822.44;5056004;28;20131;-92
2023/09/20 06:00:22;;;;;;;6.95;3.10;;;;;;;19.48;100.00;98823.44;5056473;28;20489;-93
2023/09/20 06:02:50;;;;;;;8.63;3.42;;;;;;;19.49;100.00;98839.50;5058262;28;20060;-93
2023/09/20 06:05:16;;;;;;;9.60;3.65;;;;;;;19.38;100.00;98836.59;5056623;28;20478;-94
2023/09/20 06:07:44;;;;;;;12.48;3.83;;;;;;;18.94;100.00;98788.16;5055197;28;20045;-94
2023/09/20 06:10:12;;;;;;;5.15;3.60;;;;;;;19.11;100.00;98814.06;5055324;28;20047;-95
2023/09/20 06:12:38;;;;;;;12.73;3.75;;;;;;;19.44;100.00;98846.16;5058624;28;20037;-94
2023/09/20 06:15:07;;;;;;;10.25;3.80;;;;;;;19.44;100.00;98836.22;5054060;28;20040;-94
2023/09/20 06:17:34;;;;;;;8.43;3.85;;;;;;;19.39;100.00;98795.22;5054486;28;20044;-91
2023/09/20 06:20:00;;;;;;;15.05;3.40;;;;;;;19.65;100.00;98820.53;5130974;22;20048;-94
2023/09/20 06:22:28;;;;;;;13.95;3.75;;;;;;;19.75;100.00;98826.22;5087464;28;20127;-94
2023/09/20 06:24:56;;;;;;;8.88;3.47;;;;;;;19.87;100.00;98840.78;5087013;28;20086;-92
2023/09/20 06:27:22;;;;;;;11.32;2.90;;;;;;;19.73;100.00;98808.41;5085871;28;20452;-92
2023/09/20 06:29:49;;;;;;;14.60;3.40;;;;;;;19.65;100.00;98801.66;5090770;28;20044;-92
2023/09/20 06:32:19;;;;;;;6.90;3.38;;;;;;;19.85;100.00;98832.78;5092698;28;20040;-94
2023/09/20 06:34:45;;;;;;;15.65;4.32;;;;;;;19.64;100.00;98781.00;5088679;28;20177;-93
2023/09/20 06:37:11;;;;;;;14.88;4.53;;;;;;;19.89;100.00;98814.56;5089649;28;20067;-93
2023/09/20 06:39:37;;;;;;;12.35;4.13;;;;;;;19.89;100.00;98809.16;5082741;28;20036;-92
2023/09/20 06:42:04;;;;;;;13.43;3.63;;;;;;;19.69;100.00;98778.03;5086194;28;20056;-94
2023/09/20 06:44:35;;;;;;;10.75;3.70;;;;;;;19.83;100.00;98813.13;5088891;28;20051;-92
2023/09/20 06:47:02;;;;;;;12.40;3.83;;;;;;;20.01;100.00;98858.78;5088209;28;20036;-92
2023/09/20 06:49:30;;;;;;;12.68;3.90;;;;;;;19.88;100.00;98834.41;5088236;28;20135;-93
2023/09/20 06:51:57;;;;;;;10.07;3.72;;;;;;;19.97;100.00;98843.75;5090944;28;20569;-92
2023/09/20 06:54:23;;;;;;;13.23;4.80;;;;;;;20.03;100.00;98851.44;5087495;28;20064;-94
2023/09/20 06:56:50;;;;;;;10.00;3.05;;;;;;;20.04;100.00;98867.56;5091756;28;20059;-94
2023/09/20 06:59:19;;;;;;;12.00;3.97;;;;;;;20.11;100.00;98862.63;5088155;28;20040;-94
2023/09/20 07:01:50;;;;;;;9.20;3.97;;;;;;;20.02;100.00;98841.63;5081473;28;20045;-92
2023/09/20 07:04:16;;;;;;;;;;;;;;;20.19;100.00;98865.69;5092655;28;20039;-93
2023/09/20 07:06:44;;;;;;;8.20;3.08;;;;;;;20.02;99.81;98826.31;5082772;28;19945;-94
2023/09/20 07:09:10;;;;;;;7.50;3.05;;;;;;;20.18;99.06;98850.44;5091742;28;20079;-95
2023/09/20 07:11:37;;;;;;;6.25;3.13;;;;;;;20.11;96.56;98824.84;5087766;28;20056;-91
2023/09/20 07:14:05;;;;;;;8.68;2.95;;;;;;;20.31;97.78;98847.81;5087148;28;20086;-90
2023/09/20 07:16:34;;;;;;;9.00;2.95;;;;;;;20.28;97.51;98830.00;5086123;28;20521;-92
2023/09/20 07:19:05;;;;;;;5.20;3.05;;;;;;;20.16;92.16;98822.69;5080361;28;20064;-93
2023/09/20 07:21:37;;;;;;;6.32;2.97;;;;;;;20.05;92.59;98819.81;5092407;28;20044;-94
2023/09/20 07:24:24;;;;;;;4.78;2.67;;;;;;;19.76;94.47;98801.00;5080836;28;20046;-94
2023/09/20 07:26:52;;;;;;;5.35;2.83;;;;;;;19.96;93.95;98836.63;5082585;28;20482;-94
2023/09/20 07:29:18;;;;;;;5.75;3.08;;;;;;;20.19;93.68;98854.91;5090561;28;20044;-92
2023/09/20 07:31:48;;;;;;;7.28;2.95;;;;;;;20.21;92.74;98836.78;5086825;28;20051;-92
2023/09/20 07:34:23;;;;;;;5.50;2.67;;;;;;;19.42;93.54;98767.19;5087445;28;20029;-96
2023/09/20 07:36:53;;;;;;;11.15;4.07;;;;;;;19.38;98.00;98815.03;5097760;28;20032;-94
2023/09/20 07:39:23;;;;;;;6.90;3.10;;;;;;;19.64;98.11;98839.50;5099112;28;20051;-95
2023/09/20 07:41:50;;;;;;;5.80;3.20;;;;;;;19.55;98.42;98864.38;5087972;28;20062;-91
2023/09/20 07:44:24;;;;;;;7.00;3.08;;;;;;;19.17;98.49;98801.06;5091906;28;20051;-94
2023/09/20 07:46:52;;;;;;;6.70;3.58;;;;;;;19.34;96.97;98813.47;5089008;28;20079;-93
2023/09/20 07:49:19;;;;;;;4.55;2.80;;;;;;;19.47;95.69;98830.66;5086914;28;20043;-92
2023/09/20 07:51:45;;;;;;;7.78;2.70;;;;;;;19.56;96.41;98856.19;5088451;28;20043;-92
2023/09/20 07:54:14;;;;;;;6.20;2.90;;;;;;;19.67;96.06;98847.44;5092776;28;20104;-95
2023/09/20 07:56:49;;;;;;;3.50;2.38;;;;;;;19.97;93.02;98877.00;5096660;28;20040;-94
2023/09/20 07:59:17;;;;;;;5.85;2.42;;;;;;;19.82;92.32;98824.91;5100341;28;20036;-95
2023/09/20 08:01:44;;;;;;;5.80;3.10;;;;;;;19.81;90.94;98824.97;5097281;28;20037;-94
2023/09/20 08:04:11;;;;;;;3.45;1.95;;;;;;;19.99;90.78;98845.38;5096072;28;20462;-93
2023/09/20 08:06:40;;;;;;;4.10;2.30;;;;;;;20.01;89.19;98839.88;5089510;28;20040;-92
2023/09/20 08:09:06;;;;;;;5.72;3.20;;;;;;;20.30;88.26;98851.50;5090942;28;20036;-92
2023/09/20 08:11:33;;;;;;;6.95;2.95;;;;;;;20.31;87.26;98848.69;5087425;28;20041;-94
2023/09/20 08:14:04;;;;;;;6.13;3.47;;;;;;;20.70;85.74;98884.84;5087182;28;20040;-93
2023/09/20 08:16:33;;;;;;;9.50;2.85;;;;;;;20.76;83.14;98872.78;5088353;28;20044;-94
2023/09/20 08:22:20;;;;;;;4.78;2.17;;;;;;;20.81;83.07;98853.56;5208067;27;20408;-92
2023/09/20 09:01:23;;;;;;;5.20;1.95;;;;;;;22.03;73.94;98863.03;5214307;27;20389;-93
2023/09/20 09:03:50;;;;;;;4.68;1.98;;;;;;;22.27;72.87;98830.63;5187429;27;20062;-94
2023/09/20 09:06:16;;;;;;;4.47;1.80;;;;;;;22.69;70.80;98839.19;5183000;27;20038;-93
2023/09/20 09:08:42;;;;;;;6.97;2.03;;;;;;;22.75;71.02;98805.34;5181911;27;20102;-94
2023/09/20 09:11:08;;;;;;;5.32;1.70;;;;;;;23.17;69.80;98838.28;5181016;27;20050;-93
2023/09/20 09:13:34;;;;;;;5.00;2.08;;;;;;;23.08;68.64;98811.88;5179319;27;20036;-94
2023/09/20 09:16:04;;;;;;;6.65;2.10;;;;;;;23.33;67.79;98816.25;5180945;27;20053;-93
2023/09/20 09:18:32;;;;;;;5.78;1.90;;;;;;;23.66;66.33;98857.97;5180387;27;20071;-92
2023/09/20 09:20:57;;;;;;;4.72;1.80;;;;;;;23.67;66.91;98828.00;5181087;27;20048;-94
2023/09/20 09:23:31;;;;;;;6.63;2.42;;;;;;;23.91;64.86;98840.63;5181336;27;20098;-93
2023/09/20 09:25:57;;;;;;;4.60;2.20;;;;;;;24.25;64.33;98865.91;5180383;27;20038;-94
2023/09/20 09:28:25;;;;;;;6.68;1.90;;;;;;;24.07;64.30;98789.50;5180158;27;20061;-95
2023/09/20 09:30:54;;;;;;;4.68;2.00;;;;;;;24.56;64.52;98834.34;5179744;27;20037;-95
2023/09/20 09:33:22;;;;;;;8.85;2.03;;;;;;;24.53;62.86;98820.16;5178360;27;20125;-94
2023/09/20 09:36:14;;;;;;;4.57;1.70;;;;;;;24.26;63.34;98791.53;5189945;27;20129;-93
2023/09/20 09:38:40;;;;;;;5.93;1.90;;;;;;;24.23;63.48;98818.97;5175904;27;20022;-93
2023/09/20 09:41:08;;;;;;;7.03;2.25;;;;;;;24.40;63.67;98840.19;5179544;27;20444;-94
2023/09/20 09:43:35;;;;;;;5.05;1.80;;;;;;;24.17;64.00;98792.31;5178953;27;20041;-92
2023/09/20 09:46:06;;;;;;;5.00;2.08;;;;;;;24.35;65.24;98815.25;5179310;27;20034;-94
2023/09/20 09:48:32;;;;;;;6.30;1.80;;;;;;;24.31;63.76;98796.56;5178675;27;20086;-95
2023/09/20 09:51:00;;;;;;;7.82;2.00;;;;;;;24.65;63.94;98856.31;5178262;27;20775;-94
2023/09/20 09:53:29;;;;;;;6.57;1.83;;;;;;;24.62;63.98;98843.00;5178395;27;20030;-94
2023/09/20 09:55:55;;;;;;;;;;;;;;;24.68;62.19;98865.09;5182977;27;20046;-93
2023/09/20 09:58:21;;;;;;;4.32;1.67;;;;;;;24.51;61.82;98852.06;5178327;27;19929;-92
2023/09/20 10:00:49;;;;;;;4.50;1.50;;;;;;;24.33;59.33;98819.06;5154827;27;20074;-93
2023/09/20 10:03:25;;;;;;;5.88;1.77;;;;;;;24.44;59.23;98826.31;5152925;27;20476;-93
2023/09/20 10:05:57;;;;;;;6.88;1.65;;;;;;;24.40;59.79;98840.19;5153264;27;20054;-93
2023/09/20 10:08:28;;;;;;;12.13;2.05;;;;;;;24.23;60.62;98818.13;5150572;27;20031;-94
2023/09/20 10:11:01;;;;;;;4.38;1.88;;;;;;;23.88;62.97;98803.72;5146668;27;20087;-93
2023/09/20 10:13:29;;;;;;;6.53;1.92;;;;;;;23.88;64.05;98816.44;5140316;27;20039;-94
2023/09/20 10:15:57;;;;;;;5.07;2.05;;;;;;;23.65;65.74;98846.25;5137804;27;20027;-94
2023/09/20 10:18:31;;;;;;;7.28;2.15;;;;;;;23.54;64.00;98825.41;5141551;27;20100;-95
2023/09/20 10:21:04;;;;;;;3.55;1.90;;;;;;;23.61;64.64;98809.47;5139505;27;20035;-93
2023/09/20 10:23:34;;;;;;;7.90;2.47;;;;;;;23.40;65.95;98813.91;5142322;27;20038;-94
2023/09/20 10:26:02;;;;;;;10.90;2.50;;;;;;;23.35;66.91;98812.41;5143211;27;20560;-93
2023/09/20 10:28:37;;;;;;;8.13;2.47;;;;;;;23.24;67.86;98822.41;5142392;27;20038;-93
2023/09/20 10:31:05;;;;;;;8.85;2.22;;;;;;;23.38;67.49;98835.75;5139382;27;20119;-93
2023/09/20 10:33:45;;;;;;;4.57;2.40;;;;;;;23.12;68.82;98816.09;5139656;27;20127;-93
2023/09/20 10:36:13;;;;;;;8.20;2.53;;;;;;;22.97;68.67;98777.44;5139466;27;20039;-93
2023/09/20 10:38:40;;;;;;;4.65;2.28;;;;;;;23.17;67.09;98795.75;5138832;27;20039;-93
2023/09/20 10:41:09;;;;;;;5.57;2.00;;;;;;;23.33;67.97;98789.09;5140586;27;20034;-93
2023/09/20 10:43:48;;;;;;;8.32;2.00;;;;;;;23.67;66.76;98811.72;5139642;27;20035;-96
2023/09/20 10:46:17;;;;;;;6.88;2.15;;;;;;;23.73;66.20;98832.94;5136025;27;20042;-94
2023/09/20 10:48:50;;;;;;;4.88;1.80;;;;;;;23.73;64.28;98796.78;5137076;27;20123;-94
2023/09/20 10:51:42;;;;;;;6.18;1.90;;;;;;;24.19;63.39;98829.22;5138974;27;20035;-92
2023/09/20 10:54:18;;;;;;;7.35;2.20;;;;;;;24.04;63.80;98810.59;5138887;27;20039;-92
2023/09/20 10:57:02;;;;;;;11.65;2.65;;;;;;;24.21;63.64;98784.78;5140598;27;20047;-92
2023/09/20 10:59:30;;;;;;;5.47;1.90;;;;;;;24.50;62.62;98801.38;5162468;27;20522;-95
2023/09/20 11:02:05;;;;;;;4.13;1.52;;;;;;;24.50;62.25;98774.19;5168626;27;20059;-94
2023/09/20 11:04:34;;;;;;;6.53;2.00;;;;;;;24.72;60.27;98794.97;5169256;27;20034;-94
2023/09/20 11:07:02;;;;;;;5.40;1.73;;;;;;;25.02;59.08;98826.84;5170097;27;20054;-93
2023/09/20 11:09:33;;;;;;;7.53;1.92;;;;;;;24.96;59.27;98813.78;5169086;27;20039;-96
2023/09/20 11:12:11;;;;;;;6.22;1.50;;;;;;;24.66;59.21;98769.19;5166749;27;20039;-93
2023/09/20 11:14:40;;;;;;;5.63;2.10;;;;;;;25.09;58.62;98822.63;5166397;27;20395;-92
2023/09/20 11:17:06;;;;;;;3.72;1.90;;;;;;;25.14;59.82;98833.97;5165974;27;20072;-92
2023/09/20 11:19:33;;;;;;;5.30;2.03;;;;;;;25.04;60.71;98769.59;5163033;27;20933;-94
2023/09/20 11:22:00;;;;;;;7.63;2.58;;;;;;;25.09;60.93;98765.50;5158424;27;20062;-92
2023/09/20 11:24:26;;;;;;;6.75;2.55;;;;;;;25.53;60.14;98822.50;5167135;27;20495;-93
2023/09/20 11:26:54;;;;;;;6.30;2.40;;;;;;;25.45;59.25;98804.09;5165363;27;20073;-93
2023/09/20 11:29:22;;;;;;;7.32;2.17;;;;;;;25.83;58.06;98813.47;5165025;27;20060;-93
2023/09/20 11:31:48;;;;;;;5.97;2.00;;;;;;;25.81;58.11;98755.53;5164981;27;20046;-94
2023/09/20 11:34:17;;;;;;;4.32;1.85;;;;;;;26.43;57.21;98800.72;5164521;27;20466;-92
2023/09/20 11:36:44;;;;;;;3.15;1.92;;;;;;;26.68;55.27;98803.97;5162446;27;20364;-94
2023/09/20 11:39:14;;;;;;;3.97;1.90;;;;;;;26.53;54.88;98750.81;5165039;27;20041;-94
2023/09/20 11:41:43;;;;;;;3.90;1.85;;;;;;;26.88;55.70;98806.69;5165369;27;20038;-93
2023/09/20 11:44:09;;;;;;;10.68;2.05;;;;;;;26.88;55.21;98793.03;5163587;27;20042;-94
2023/09/20 11:46:36;;;;;;;8.40;2.10;;;;;;;26.68;54.84;98762.19;5164861;27;20034;-94
2023/09/20 11:49:04;;;;;;;5.93;2.47;;;;;;;26.39;54.53;98731.16;5165767;27;20038;-95
2023/09/20 11:51:34;;;;;;;6.45;2.13;;;;;;;26.45;54.89;98746.06;5164466;27;20121;-94
2023/09/20 11:54:05;;;;;;;8.65;1.70;;;;;;;26.50;55.51;98762.00;5161416;27;20121;-94
2023/09/20 11:56:34;;;;;;;6.43;2.20;;;;;;;26.39;55.71;98733.88;5161964;27;20058;-93
2023/09/20 11:59:01;;;;;;;8.88;2.95;;;;;;;26.40;54.86;98748.38;5164356;27;20041;-93
2023/09/20 12:01:29;;;;;;;7.38;2.10;;;;;;;26.20;55.13;98744.75;5164076;27;20125;-94
2023/09/20 12:03:56;;;;;;;9.05;2.35;;;;;;;26.01;55.23;98732.81;5162134;27;20428;-95
2023/09/20 12:06:24;;;;;;;13.70;1.83;;;;;;;26.10;55.44;98747.47;5160615;27;20038;-95
2023/09/20 12:08:51;;;;;;;6.00;1.73;;;;;;;26.10;56.98;98742.00;5159955;27;20129;-96
2023/09/20 12:11:17;;;;;;;7.90;2.30;;;;;;;26.51;55.77;98807.34;5163791;27;20035;-94
2023/09/20 12:13:45;;;;;;;9.98;2.35;;;;;;;26.40;57.48;98775.63;5164027;27;20034;-95